sensor_id;sensor_type;location;lat;lon;timestamp;P1;durP1;ratioP1;P2;durP2;ratioP2
33826;SDS011;20128;45.582;5.298;2022-07-23T00:02:22;8.73;;;7.00;;
33826;SDS011;20128;45.582;5.298;2022-07-23T00:04:47;9.73;;;6.93;;
33826;SDS011;20128;45.582;5.298;2022-07-23T00:07:13;10.15;;;7.63;;
33826;SDS011;20128;45.582;5.298;2022-07-23T00:09:39;13.27;;;7.65;;
33826;SDS011;20128;45.582;5.298;2022-07-23T00:12:04;9.45;;;7.47;;
33826;SDS011;20128;45.582;5.298;2022-07-23T00:14:30;17.70;;;7.72;;
33826;SDS011;20128;45.582;5.298;2022-07-23T00:16:56;9.75;;;7.28;;
33826;SDS011;20128;45.582;5.298;2022-07-23T00:19:21;10.07;;;7.32;;
33826;SDS011;20128;45.582;5.298;2022-07-23T00:21:47;13.07;;;7.75;;
33826;SDS011;20128;45.582;5.298;2022-07-23T00:24:13;16.58;;;8.00;;
33826;SDS011;20128;45.582;5.298;2022-07-23T00:26:38;10.18;;;7.97;;
33826;SDS011;20128;45.582;5.298;2022-07-23T00:29:04;16.67;;;7.88;;
33826;SDS011;20128;45.582;5.298;2022-07-23T00:31:30;12.57;;;7.88;;
33826;SDS011;20128;45.582;5.298;2022-07-23T00:33:56;10.75;;;7.05;;
33826;SDS011;20128;45.582;5.298;2022-07-23T00:36:22;14.18;;;8.63;;
33826;SDS011;20128;45.582;5.298;2022-07-23T00:38:48;13.93;;;7.78;;
33826;SDS011;20128;45.582;5.298;2022-07-23T00:41:15;16.08;;;8.07;;
33826;SDS011;20128;45.582;5.298;2022-07-23T00:43:40;15.18;;;8.43;;
33826;SDS011;20128;45.582;5.298;2022-07-23T00:46:06;10.23;;;7.75;;
33826;SDS011;20128;45.582;5.298;2022-07-23T00:48:32;14.20;;;8.77;;
33826;SDS011;20128;45.582;5.298;2022-07-23T00:50:58;13.82;;;8.32;;
33826;SDS011;20128;45.582;5.298;2022-07-23T00:53:24;20.52;;;9.32;;
33826;SDS011;20128;45.582;5.298;2022-07-23T00:55:49;20.35;;;8.75;;
33826;SDS011;20128;45.582;5.298;2022-07-23T00:58:16;22.52;;;10.00;;
33826;SDS011;20128;45.582;5.298;2022-07-23T01:00:41;18.55;;;9.80;;
33826;SDS011;20128;45.582;5.298;2022-07-23T01:03:07;13.13;;;8.95;;
33826;SDS011;20128;45.582;5.298;2022-07-23T01:05:33;19.73;;;10.10;;
33826;SDS011;20128;45.582;5.298;2022-07-23T01:07:59;14.88;;;10.18;;
33826;SDS011;20128;45.582;5.298;2022-07-23T01:10:25;12.63;;;8.27;;
33826;SDS011;20128;45.582;5.298;2022-07-23T01:13:07;16.20;;;9.95;;
33826;SDS011;20128;45.582;5.298;2022-07-23T01:15:35;17.63;;;10.40;;
33826;SDS011;20128;45.582;5.298;2022-07-23T01:18:02;16.10;;;10.13;;
33826;SDS011;20128;45.582;5.298;2022-07-23T01:20:29;18.92;;;10.43;;
33826;SDS011;20128;45.582;5.298;2022-07-23T01:22:55;18.05;;;10.73;;
33826;SDS011;20128;45.582;5.298;2022-07-23T01:25:21;14.85;;;9.23;;
33826;SDS011;20128;45.582;5.298;2022-07-23T01:27:48;16.05;;;7.88;;
33826;SDS011;20128;45.582;5.298;2022-07-23T01:30:14;26.13;;;11.38;;
33826;SDS011;20128;45.582;5.298;2022-07-23T01:32:40;18.70;;;10.52;;
33826;SDS011;20128;45.582;5.298;2022-07-23T01:35:06;14.15;;;8.52;;
33826;SDS011;20128;45.582;5.298;2022-07-23T01:37:32;14.88;;;9.52;;
33826;SDS011;20128;45.582;5.298;2022-07-23T01:39:58;17.20;;;9.63;;
33826;SDS011;20128;45.582;5.298;2022-07-23T01:42:24;17.83;;;9.10;;
33826;SDS011;20128;45.582;5.298;2022-07-23T01:44:50;14.15;;;9.00;;
33826;SDS011;20128;45.582;5.298;2022-07-23T01:47:16;15.95;;;9.13;;
33826;SDS011;20128;45.582;5.298;2022-07-23T01:49:42;12.43;;;9.63;;
33826;SDS011;20128;45.582;5.298;2022-07-23T01:52:07;16.38;;;9.57;;
33826;SDS011;20128;45.582;5.298;2022-07-23T01:54:35;16.80;;;9.80;;
33826;SDS011;20128;45.582;5.298;2022-07-23T01:57:03;15.00;;;10.10;;
33826;SDS011;20128;45.582;5.298;2022-07-23T01:59:29;20.95;;;11.38;;
33826;SDS011;20128;45.582;5.298;2022-07-23T02:01:55;21.45;;;10.63;;
33826;SDS011;20128;45.582;5.298;2022-07-23T02:04:21;13.38;;;9.73;;
33826;SDS011;20128;45.582;5.298;2022-07-23T02:06:49;15.68;;;9.98;;
33826;SDS011;20128;45.582;5.298;2022-07-23T02:09:16;22.63;;;11.13;;
33826;SDS011;20128;45.582;5.298;2022-07-23T02:11:42;18.52;;;10.63;;
33826;SDS011;20128;45.582;5.298;2022-07-23T02:14:08;21.58;;;9.88;;
33826;SDS011;20128;45.582;5.298;2022-07-23T02:16:33;15.25;;;10.02;;
33826;SDS011;20128;45.582;5.298;2022-07-23T02:18:59;17.67;;;10.85;;
33826;SDS011;20128;45.582;5.298;2022-07-23T02:21:25;19.42;;;11.98;;
33826;SDS011;20128;45.582;5.298;2022-07-23T02:23:51;16.95;;;11.18;;
33826;SDS011;20128;45.582;5.298;2022-07-23T02:26:16;13.98;;;8.82;;
33826;SDS011;20128;45.582;5.298;2022-07-23T02:28:42;14.98;;;10.40;;
33826;SDS011;20128;45.582;5.298;2022-07-23T02:31:08;14.10;;;8.93;;
33826;SDS011;20128;45.582;5.298;2022-07-23T02:33:33;19.67;;;13.00;;
33826;SDS011;20128;45.582;5.298;2022-07-23T02:35:59;16.23;;;9.43;;
33826;SDS011;20128;45.582;5.298;2022-07-23T02:38:25;18.98;;;12.70;;
33826;SDS011;20128;45.582;5.298;2022-07-23T02:40:51;20.73;;;12.18;;
33826;SDS011;20128;45.582;5.298;2022-07-23T02:43:17;17.17;;;11.10;;
33826;SDS011;20128;45.582;5.298;2022-07-23T02:45:43;17.92;;;12.60;;
33826;SDS011;20128;45.582;5.298;2022-07-23T02:48:08;15.35;;;9.48;;
33826;SDS011;20128;45.582;5.298;2022-07-23T02:50:37;11.05;;;9.00;;
33826;SDS011;20128;45.582;5.298;2022-07-23T02:53:03;18.85;;;12.13;;
33826;SDS011;20128;45.582;5.298;2022-07-23T02:55:29;18.67;;;11.88;;
33826;SDS011;20128;45.582;5.298;2022-07-23T02:57:56;19.30;;;12.93;;
33826;SDS011;20128;45.582;5.298;2022-07-23T03:00:22;16.38;;;11.02;;
33826;SDS011;20128;45.582;5.298;2022-07-23T03:02:48;21.67;;;12.30;;
33826;SDS011;20128;45.582;5.298;2022-07-23T03:05:13;23.25;;;11.85;;
33826;SDS011;20128;45.582;5.298;2022-07-23T03:07:39;17.95;;;10.80;;
33826;SDS011;20128;45.582;5.298;2022-07-23T03:10:05;17.23;;;10.32;;
33826;SDS011;20128;45.582;5.298;2022-07-23T03:12:30;14.70;;;9.07;;
33826;SDS011;20128;45.582;5.298;2022-07-23T03:14:56;14.32;;;10.23;;
33826;SDS011;20128;45.582;5.298;2022-07-23T03:17:22;14.85;;;10.43;;
33826;SDS011;20128;45.582;5.298;2022-07-23T03:19:47;14.68;;;10.57;;
33826;SDS011;20128;45.582;5.298;2022-07-23T03:22:13;18.42;;;10.20;;
33826;SDS011;20128;45.582;5.298;2022-07-23T03:24:39;14.10;;;8.45;;
33826;SDS011;20128;45.582;5.298;2022-07-23T03:27:23;21.27;;;10.57;;
33826;SDS011;20128;45.582;5.298;2022-07-23T03:29:50;15.40;;;11.15;;
33826;SDS011;20128;45.582;5.298;2022-07-23T03:32:17;12.82;;;9.70;;
33826;SDS011;20128;45.582;5.298;2022-07-23T03:34:43;14.05;;;9.98;;
33826;SDS011;20128;45.582;5.298;2022-07-23T03:37:08;17.85;;;10.75;;
33826;SDS011;20128;45.582;5.298;2022-07-23T03:39:34;13.73;;;9.13;;
33826;SDS011;20128;45.582;5.298;2022-07-23T03:42:00;16.17;;;9.80;;
33826;SDS011;20128;45.582;5.298;2022-07-23T03:44:26;16.27;;;10.70;;
33826;SDS011;20128;45.582;5.298;2022-07-23T03:46:52;14.10;;;9.07;;
33826;SDS011;20128;45.582;5.298;2022-07-23T03:49:17;18.48;;;9.70;;
33826;SDS011;20128;45.582;5.298;2022-07-23T03:51:43;16.10;;;10.93;;
33826;SDS011;20128;45.582;5.298;2022-07-23T03:54:09;15.18;;;9.15;;
33826;SDS011;20128;45.582;5.298;2022-07-23T03:56:35;16.08;;;9.07;;
33826;SDS011;20128;45.582;5.298;2022-07-23T03:59:01;12.23;;;8.73;;
33826;SDS011;20128;45.582;5.298;2022-07-23T04:01:26;14.63;;;9.45;;
33826;SDS011;20128;45.582;5.298;2022-07-23T04:03:52;11.85;;;8.55;;
33826;SDS011;20128;45.582;5.298;2022-07-23T04:06:18;15.93;;;10.07;;
33826;SDS011;20128;45.582;5.298;2022-07-23T04:08:44;17.00;;;10.07;;
33826;SDS011;20128;45.582;5.298;2022-07-23T04:11:09;15.43;;;8.82;;
33826;SDS011;20128;45.582;5.298;2022-07-23T04:13:35;12.90;;;7.68;;
33826;SDS011;20128;45.582;5.298;2022-07-23T04:16:00;13.63;;;8.32;;
33826;SDS011;20128;45.582;5.298;2022-07-23T04:18:26;16.95;;;7.90;;
33826;SDS011;20128;45.582;5.298;2022-07-23T04:20:52;10.48;;;7.90;;
33826;SDS011;20128;45.582;5.298;2022-07-23T04:23:19;11.30;;;8.07;;
33826;SDS011;20128;45.582;5.298;2022-07-23T04:25:44;10.20;;;7.88;;
33826;SDS011;20128;45.582;5.298;2022-07-23T04:28:10;10.70;;;8.38;;
33826;SDS011;20128;45.582;5.298;2022-07-23T04:30:36;10.95;;;8.60;;
33826;SDS011;20128;45.582;5.298;2022-07-23T04:33:02;10.02;;;8.05;;
33826;SDS011;20128;45.582;5.298;2022-07-23T04:35:31;11.40;;;8.90;;
33826;SDS011;20128;45.582;5.298;2022-07-23T04:37:58;10.05;;;8.25;;
33826;SDS011;20128;45.582;5.298;2022-07-23T04:40:24;11.05;;;8.15;;
33826;SDS011;20128;45.582;5.298;2022-07-23T04:42:50;10.60;;;7.72;;
33826;SDS011;20128;45.582;5.298;2022-07-23T04:45:16;10.93;;;8.00;;
33826;SDS011;20128;45.582;5.298;2022-07-23T04:47:41;11.30;;;8.05;;
33826;SDS011;20128;45.582;5.298;2022-07-23T04:50:07;8.57;;;7.07;;
33826;SDS011;20128;45.582;5.298;2022-07-23T04:52:33;9.32;;;7.45;;
33826;SDS011;20128;45.582;5.298;2022-07-23T04:54:59;14.35;;;7.82;;
33826;SDS011;20128;45.582;5.298;2022-07-23T04:57:24;11.13;;;8.93;;
33826;SDS011;20128;45.582;5.298;2022-07-23T04:59:50;9.55;;;7.82;;
33826;SDS011;20128;45.582;5.298;2022-07-23T05:02:16;10.55;;;8.23;;
33826;SDS011;20128;45.582;5.298;2022-07-23T05:04:42;10.77;;;8.27;;
33826;SDS011;20128;45.582;5.298;2022-07-23T05:07:07;10.77;;;8.45;;
33826;SDS011;20128;45.582;5.298;2022-07-23T05:09:33;8.23;;;6.93;;
33826;SDS011;20128;45.582;5.298;2022-07-23T05:11:59;9.73;;;7.70;;
33826;SDS011;20128;45.582;5.298;2022-07-23T05:14:25;10.23;;;7.75;;
33826;SDS011;20128;45.582;5.298;2022-07-23T05:16:51;15.95;;;8.10;;
33826;SDS011;20128;45.582;5.298;2022-07-23T05:19:17;12.60;;;8.38;;
33826;SDS011;20128;45.582;5.298;2022-07-23T05:21:42;13.52;;;8.13;;
33826;SDS011;20128;45.582;5.298;2022-07-23T05:24:08;10.73;;;8.00;;
33826;SDS011;20128;45.582;5.298;2022-07-23T05:26:34;12.13;;;8.18;;
33826;SDS011;20128;45.582;5.298;2022-07-23T05:28:59;12.50;;;9.20;;
33826;SDS011;20128;45.582;5.298;2022-07-23T05:31:25;13.30;;;7.97;;
33826;SDS011;20128;45.582;5.298;2022-07-23T05:33:51;11.57;;;8.02;;
33826;SDS011;20128;45.582;5.298;2022-07-23T05:36:16;10.68;;;8.65;;
33826;SDS011;20128;45.582;5.298;2022-07-23T05:38:42;15.07;;;11.70;;
33826;SDS011;20128;45.582;5.298;2022-07-23T05:41:08;12.85;;;7.72;;
33826;SDS011;20128;45.582;5.298;2022-07-23T05:43:33;14.60;;;9.80;;
33826;SDS011;20128;45.582;5.298;2022-07-23T05:45:59;42.88;;;11.50;;
33826;SDS011;20128;45.582;5.298;2022-07-23T05:48:25;18.52;;;10.55;;
33826;SDS011;20128;45.582;5.298;2022-07-23T05:50:50;12.77;;;8.40;;
33826;SDS011;20128;45.582;5.298;2022-07-23T05:53:16;17.02;;;8.25;;
33826;SDS011;20128;45.582;5.298;2022-07-23T05:55:42;13.15;;;9.70;;
33826;SDS011;20128;45.582;5.298;2022-07-23T05:58:07;10.50;;;8.20;;
33826;SDS011;20128;45.582;5.298;2022-07-23T06:00:34;15.90;;;9.55;;
33826;SDS011;20128;45.582;5.298;2022-07-23T06:03:00;12.70;;;9.00;;
33826;SDS011;20128;45.582;5.298;2022-07-23T06:05:26;12.30;;;8.52;;
33826;SDS011;20128;45.582;5.298;2022-07-23T06:07:51;11.15;;;8.60;;
33826;SDS011;20128;45.582;5.298;2022-07-23T06:10:18;10.35;;;8.30;;
33826;SDS011;20128;45.582;5.298;2022-07-23T06:12:44;13.07;;;8.75;;
33826;SDS011;20128;45.582;5.298;2022-07-23T06:15:10;12.40;;;8.55;;
33826;SDS011;20128;45.582;5.298;2022-07-23T06:17:36;11.55;;;8.43;;
33826;SDS011;20128;45.582;5.298;2022-07-23T06:20:04;10.30;;;7.70;;
33826;SDS011;20128;45.582;5.298;2022-07-23T06:22:31;15.38;;;9.45;;
33826;SDS011;20128;45.582;5.298;2022-07-23T06:24:57;13.38;;;9.80;;
33826;SDS011;20128;45.582;5.298;2022-07-23T06:27:22;14.35;;;8.25;;
33826;SDS011;20128;45.582;5.298;2022-07-23T06:29:48;14.35;;;8.00;;
33826;SDS011;20128;45.582;5.298;2022-07-23T06:32:14;15.73;;;7.57;;
33826;SDS011;20128;45.582;5.298;2022-07-23T06:34:39;14.48;;;7.97;;
33826;SDS011;20128;45.582;5.298;2022-07-23T06:37:05;13.05;;;8.40;;
33826;SDS011;20128;45.582;5.298;2022-07-23T06:39:31;17.25;;;9.10;;
33826;SDS011;20128;45.582;5.298;2022-07-23T06:41:56;12.02;;;9.40;;
33826;SDS011;20128;45.582;5.298;2022-07-23T06:44:22;16.40;;;8.57;;
33826;SDS011;20128;45.582;5.298;2022-07-23T06:46:47;12.45;;;7.93;;
33826;SDS011;20128;45.582;5.298;2022-07-23T06:49:13;19.67;;;9.65;;
33826;SDS011;20128;45.582;5.298;2022-07-23T06:51:39;16.65;;;10.02;;
33826;SDS011;20128;45.582;5.298;2022-07-23T06:54:05;14.38;;;9.23;;
33826;SDS011;20128;45.582;5.298;2022-07-23T06:56:30;17.58;;;9.02;;
33826;SDS011;20128;45.582;5.298;2022-07-23T06:58:56;14.15;;;9.35;;
33826;SDS011;20128;45.582;5.298;2022-07-23T07:01:22;11.85;;;9.68;;
33826;SDS011;20128;45.582;5.298;2022-07-23T07:03:47;15.77;;;8.30;;
33826;SDS011;20128;45.582;5.298;2022-07-23T07:06:14;15.93;;;10.18;;
33826;SDS011;20128;45.582;5.298;2022-07-23T07:08:40;12.38;;;8.65;;
33826;SDS011;20128;45.582;5.298;2022-07-23T07:11:06;12.23;;;8.30;;
33826;SDS011;20128;45.582;5.298;2022-07-23T07:13:33;13.27;;;9.35;;
33826;SDS011;20128;45.582;5.298;2022-07-23T07:16:02;13.90;;;7.80;;
33826;SDS011;20128;45.582;5.298;2022-07-23T07:18:28;15.02;;;8.95;;
33826;SDS011;20128;45.582;5.298;2022-07-23T07:20:54;14.07;;;8.35;;
33826;SDS011;20128;45.582;5.298;2022-07-23T07:23:19;14.40;;;8.98;;
33826;SDS011;20128;45.582;5.298;2022-07-23T07:25:45;14.55;;;9.18;;
33826;SDS011;20128;45.582;5.298;2022-07-23T07:28:11;11.48;;;8.48;;
33826;SDS011;20128;45.582;5.298;2022-07-23T07:30:37;12.82;;;8.48;;
33826;SDS011;20128;45.582;5.298;2022-07-23T07:33:03;10.57;;;8.65;;
33826;SDS011;20128;45.582;5.298;2022-07-23T07:35:29;10.63;;;8.60;;
33826;SDS011;20128;45.582;5.298;2022-07-23T07:37:57;16.55;;;8.77;;
33826;SDS011;20128;45.582;5.298;2022-07-23T07:40:24;15.27;;;8.57;;
33826;SDS011;20128;45.582;5.298;2022-07-23T07:42:50;15.10;;;8.13;;
33826;SDS011;20128;45.582;5.298;2022-07-23T07:45:19;9.90;;;7.88;;
33826;SDS011;20128;45.582;5.298;2022-07-23T07:47:45;10.00;;;8.45;;
33826;SDS011;20128;45.582;5.298;2022-07-23T07:50:11;14.95;;;9.55;;
33826;SDS011;20128;45.582;5.298;2022-07-23T07:52:37;15.57;;;8.23;;
33826;SDS011;20128;45.582;5.298;2022-07-23T07:55:03;10.20;;;8.27;;
33826;SDS011;20128;45.582;5.298;2022-07-23T07:57:30;16.52;;;8.80;;
33826;SDS011;20128;45.582;5.298;2022-07-23T07:59:56;10.52;;;7.75;;
33826;SDS011;20128;45.582;5.298;2022-07-23T08:02:21;11.35;;;8.15;;
33826;SDS011;20128;45.582;5.298;2022-07-23T08:04:47;12.60;;;8.05;;
33826;SDS011;20128;45.582;5.298;2022-07-23T08:07:13;16.52;;;8.65;;
33826;SDS011;20128;45.582;5.298;2022-07-23T08:09:39;14.50;;;8.02;;
33826;SDS011;20128;45.582;5.298;2022-07-23T08:12:05;14.23;;;9.23;;
33826;SDS011;20128;45.582;5.298;2022-07-23T08:14:31;14.32;;;9.27;;
33826;SDS011;20128;45.582;5.298;2022-07-23T08:16:57;14.25;;;8.57;;
33826;SDS011;20128;45.582;5.298;2022-07-23T08:19:23;13.95;;;9.60;;
33826;SDS011;20128;45.582;5.298;2022-07-23T08:21:48;16.77;;;8.85;;
33826;SDS011;20128;45.582;5.298;2022-07-23T08:24:14;12.02;;;9.00;;
33826;SDS011;20128;45.582;5.298;2022-07-23T08:26:40;9.77;;;7.97;;
33826;SDS011;20128;45.582;5.298;2022-07-23T08:29:06;14.13;;;8.85;;
33826;SDS011;20128;45.582;5.298;2022-07-23T08:31:31;17.73;;;8.73;;
33826;SDS011;20128;45.582;5.298;2022-07-23T08:33:58;13.32;;;8.25;;
33826;SDS011;20128;45.582;5.298;2022-07-23T08:36:24;14.90;;;8.48;;
33826;SDS011;20128;45.582;5.298;2022-07-23T08:38:52;12.40;;;8.65;;
33826;SDS011;20128;45.582;5.298;2022-07-23T08:41:19;17.38;;;8.88;;
33826;SDS011;20128;45.582;5.298;2022-07-23T08:43:45;11.98;;;8.48;;
33826;SDS011;20128;45.582;5.298;2022-07-23T08:46:11;10.27;;;8.48;;
33826;SDS011;20128;45.582;5.298;2022-07-23T08:48:38;17.20;;;8.38;;
33826;SDS011;20128;45.582;5.298;2022-07-23T08:51:05;11.55;;;7.72;;
33826;SDS011;20128;45.582;5.298;2022-07-23T08:53:32;17.38;;;9.70;;
33826;SDS011;20128;45.582;5.298;2022-07-23T08:56:01;16.35;;;8.93;;
33826;SDS011;20128;45.582;5.298;2022-07-23T08:58:28;11.98;;;7.80;;
33826;SDS011;20128;45.582;5.298;2022-07-23T09:00:55;15.05;;;8.68;;
33826;SDS011;20128;45.582;5.298;2022-07-23T09:03:24;11.77;;;9.13;;
33826;SDS011;20128;45.582;5.298;2022-07-23T09:05:52;12.52;;;8.00;;
33826;SDS011;20128;45.582;5.298;2022-07-23T09:08:21;14.02;;;8.13;;
33826;SDS011;20128;45.582;5.298;2022-07-23T09:10:54;11.10;;;7.85;;
33826;SDS011;20128;45.582;5.298;2022-07-23T09:15:53;12.48;;;8.52;;
33826;SDS011;20128;45.582;5.298;2022-07-23T09:18:27;10.30;;;7.78;;
33826;SDS011;20128;45.582;5.298;2022-07-23T09:21:05;14.07;;;8.18;;
33826;SDS011;20128;45.582;5.298;2022-07-23T09:23:42;10.63;;;7.72;;
33826;SDS011;20128;45.582;5.298;2022-07-23T09:26:18;8.75;;;6.82;;
33826;SDS011;20128;45.582;5.298;2022-07-23T09:28:52;17.95;;;7.70;;
33826;SDS011;20128;45.582;5.298;2022-07-23T09:31:24;12.13;;;7.13;;
33826;SDS011;20128;45.582;5.298;2022-07-23T09:34:05;12.13;;;7.72;;
33826;SDS011;20128;45.582;5.298;2022-07-23T09:36:35;11.68;;;7.80;;
33826;SDS011;20128;45.582;5.298;2022-07-23T09:39:01;12.00;;;8.00;;
33826;SDS011;20128;45.582;5.298;2022-07-23T09:41:33;11.80;;;6.97;;
33826;SDS011;20128;45.582;5.298;2022-07-23T09:44:06;12.70;;;7.35;;
33826;SDS011;20128;45.582;5.298;2022-07-23T09:46:36;11.70;;;7.43;;
33826;SDS011;20128;45.582;5.298;2022-07-23T09:49:11;12.98;;;7.22;;
33826;SDS011;20128;45.582;5.298;2022-07-23T09:51:48;12.40;;;7.85;;
33826;SDS011;20128;45.582;5.298;2022-07-23T09:54:23;11.40;;;7.13;;
33826;SDS011;20128;45.582;5.298;2022-07-23T09:56:55;15.80;;;8.77;;
33826;SDS011;20128;45.582;5.298;2022-07-23T09:59:25;12.52;;;7.82;;
33826;SDS011;20128;45.582;5.298;2022-07-23T10:01:54;9.25;;;7.60;;
33826;SDS011;20128;45.582;5.298;2022-07-23T10:04:22;11.90;;;7.28;;
33826;SDS011;20128;45.582;5.298;2022-07-23T10:06:50;9.88;;;7.15;;
33826;SDS011;20128;45.582;5.298;2022-07-23T10:09:30;15.57;;;7.22;;
33826;SDS011;20128;45.582;5.298;2022-07-23T10:11:58;12.13;;;7.25;;
33826;SDS011;20128;45.582;5.298;2022-07-23T10:14:44;11.52;;;7.07;;
33826;SDS011;20128;45.582;5.298;2022-07-23T10:17:10;11.90;;;7.22;;
33826;SDS011;20128;45.582;5.298;2022-07-23T10:19:36;14.13;;;7.75;;
33826;SDS011;20128;45.582;5.298;2022-07-23T10:22:04;14.82;;;7.70;;
33826;SDS011;20128;45.582;5.298;2022-07-23T10:24:39;12.75;;;7.47;;
33826;SDS011;20128;45.582;5.298;2022-07-23T10:27:22;14.65;;;7.95;;
33826;SDS011;20128;45.582;5.298;2022-07-23T10:33:12;9.40;;;8.00;;
33826;SDS011;20128;45.582;5.298;2022-07-23T10:36:01;10.57;;;6.65;;
33826;SDS011;20128;45.582;5.298;2022-07-23T10:38:57;13.05;;;6.78;;
33826;SDS011;20128;45.582;5.298;2022-07-23T10:41:33;13.02;;;7.28;;
33826;SDS011;20128;45.582;5.298;2022-07-23T10:46:35;11.27;;;7.15;;
33826;SDS011;20128;45.582;5.298;2022-07-23T10:49:27;18.20;;;7.43;;
33826;SDS011;20128;45.582;5.298;2022-07-23T10:54:39;11.98;;;6.38;;
33826;SDS011;20128;45.582;5.298;2022-07-23T10:57:06;11.82;;;6.68;;
33826;SDS011;20128;45.582;5.298;2022-07-23T11:02:31;10.98;;;6.40;;
33826;SDS011;20128;45.582;5.298;2022-07-23T11:05:03;11.48;;;6.75;;
33826;SDS011;20128;45.582;5.298;2022-07-23T11:07:35;14.05;;;7.25;;
33826;SDS011;20128;45.582;5.298;2022-07-23T11:10:02;9.30;;;6.43;;
33826;SDS011;20128;45.582;5.298;2022-07-23T11:17:29;10.35;;;6.50;;
33826;SDS011;20128;45.582;5.298;2022-07-23T11:22:55;11.10;;;6.50;;
33826;SDS011;20128;45.582;5.298;2022-07-23T11:27:53;11.00;;;6.45;;
33826;SDS011;20128;45.582;5.298;2022-07-23T11:33:15;11.98;;;6.88;;
33826;SDS011;20128;45.582;5.298;2022-07-23T11:35:44;11.68;;;7.63;;
33826;SDS011;20128;45.582;5.298;2022-07-23T11:38:31;13.27;;;6.38;;
33826;SDS011;20128;45.582;5.298;2022-07-23T11:40:57;10.15;;;6.25;;
33826;SDS011;20128;45.582;5.298;2022-07-23T11:43:23;13.30;;;7.20;;
33826;SDS011;20128;45.582;5.298;2022-07-23T11:45:50;10.10;;;6.55;;
33826;SDS011;20128;45.582;5.298;2022-07-23T11:48:26;12.55;;;7.90;;
33826;SDS011;20128;45.582;5.298;2022-07-23T11:50:55;10.73;;;6.65;;
33826;SDS011;20128;45.582;5.298;2022-07-23T11:53:23;13.07;;;6.97;;
33826;SDS011;20128;45.582;5.298;2022-07-23T11:55:53;7.95;;;5.78;;
33826;SDS011;20128;45.582;5.298;2022-07-23T11:58:20;10.98;;;7.07;;
33826;SDS011;20128;45.582;5.298;2022-07-23T12:00:46;12.05;;;6.95;;
33826;SDS011;20128;45.582;5.298;2022-07-23T12:03:12;12.85;;;7.10;;
33826;SDS011;20128;45.582;5.298;2022-07-23T12:05:38;11.40;;;7.38;;
33826;SDS011;20128;45.582;5.298;2022-07-23T12:08:04;12.27;;;6.40;;
33826;SDS011;20128;45.582;5.298;2022-07-23T12:10:35;10.98;;;7.28;;
33826;SDS011;20128;45.582;5.298;2022-07-23T12:15:38;12.48;;;6.80;;
33826;SDS011;20128;45.582;5.298;2022-07-23T12:18:07;9.18;;;7.10;;
33826;SDS011;20128;45.582;5.298;2022-07-23T12:20:39;12.80;;;8.07;;
33826;SDS011;20128;45.582;5.298;2022-07-23T12:23:07;9.30;;;7.03;;
33826;SDS011;20128;45.582;5.298;2022-07-23T12:25:38;11.07;;;7.07;;
33826;SDS011;20128;45.582;5.298;2022-07-23T12:30:53;10.02;;;6.88;;
33826;SDS011;20128;45.582;5.298;2022-07-23T12:35:46;13.10;;;7.55;;
33826;SDS011;20128;45.582;5.298;2022-07-23T12:38:14;13.23;;;7.53;;
33826;SDS011;20128;45.582;5.298;2022-07-23T12:43:25;9.25;;;6.60;;
33826;SDS011;20128;45.582;5.298;2022-07-23T12:48:33;9.27;;;6.13;;
33826;SDS011;20128;45.582;5.298;2022-07-23T12:51:07;10.52;;;7.13;;
33826;SDS011;20128;45.582;5.298;2022-07-23T12:53:46;17.17;;;6.95;;
33826;SDS011;20128;45.582;5.298;2022-07-23T12:56:21;12.02;;;6.25;;
33826;SDS011;20128;45.582;5.298;2022-07-23T12:58:58;14.40;;;6.80;;
33826;SDS011;20128;45.582;5.298;2022-07-23T13:01:44;9.93;;;6.82;;
33826;SDS011;20128;45.582;5.298;2022-07-23T13:04:19;12.43;;;6.72;;
33826;SDS011;20128;45.582;5.298;2022-07-23T13:06:51;13.80;;;6.90;;
33826;SDS011;20128;45.582;5.298;2022-07-23T13:09:27;13.88;;;7.05;;
33826;SDS011;20128;45.582;5.298;2022-07-23T13:11:54;8.57;;;6.57;;
33826;SDS011;20128;45.582;5.298;2022-07-23T13:14:21;10.40;;;6.22;;
33826;SDS011;20128;45.582;5.298;2022-07-23T13:16:48;12.43;;;6.25;;
33826;SDS011;20128;45.582;5.298;2022-07-23T13:19:15;10.23;;;6.53;;
33826;SDS011;20128;45.582;5.298;2022-07-23T13:21:41;10.77;;;6.05;;
33826;SDS011;20128;45.582;5.298;2022-07-23T13:24:08;14.40;;;6.85;;
33826;SDS011;20128;45.582;5.298;2022-07-23T13:26:35;10.65;;;6.53;;
33826;SDS011;20128;45.582;5.298;2022-07-23T13:29:01;8.05;;;5.70;;
33826;SDS011;20128;45.582;5.298;2022-07-23T13:31:27;12.40;;;7.25;;
33826;SDS011;20128;45.582;5.298;2022-07-23T13:33:52;8.18;;;6.28;;
33826;SDS011;20128;45.582;5.298;2022-07-23T13:36:18;8.23;;;5.75;;
33826;SDS011;20128;45.582;5.298;2022-07-23T13:38:44;7.30;;;6.38;;
33826;SDS011;20128;45.582;5.298;2022-07-23T13:41:09;9.27;;;6.63;;
33826;SDS011;20128;45.582;5.298;2022-07-23T13:43:35;9.13;;;6.18;;
33826;SDS011;20128;45.582;5.298;2022-07-23T13:46:01;7.82;;;6.13;;
33826;SDS011;20128;45.582;5.298;2022-07-23T13:48:27;9.77;;;6.50;;
33826;SDS011;20128;45.582;5.298;2022-07-23T13:50:54;11.70;;;6.72;;
33826;SDS011;20128;45.582;5.298;2022-07-23T13:53:21;11.00;;;6.55;;
33826;SDS011;20128;45.582;5.298;2022-07-23T13:56:03;11.60;;;6.93;;
33826;SDS011;20128;45.582;5.298;2022-07-23T13:58:34;8.40;;;6.05;;
33826;SDS011;20128;45.582;5.298;2022-07-23T14:01:00;10.45;;;6.07;;
33826;SDS011;20128;45.582;5.298;2022-07-23T14:03:26;12.68;;;7.05;;
33826;SDS011;20128;45.582;5.298;2022-07-23T14:05:54;10.20;;;6.47;;
33826;SDS011;20128;45.582;5.298;2022-07-23T14:08:22;8.90;;;6.82;;
33826;SDS011;20128;45.582;5.298;2022-07-23T14:10:51;14.85;;;6.72;;
33826;SDS011;20128;45.582;5.298;2022-07-23T14:13:25;10.93;;;6.15;;
33826;SDS011;20128;45.582;5.298;2022-07-23T14:15:51;7.90;;;6.47;;
33826;SDS011;20128;45.582;5.298;2022-07-23T14:18:20;8.63;;;6.10;;
33826;SDS011;20128;45.582;5.298;2022-07-23T14:20:45;9.52;;;6.13;;
33826;SDS011;20128;45.582;5.298;2022-07-23T14:23:11;12.82;;;6.40;;
33826;SDS011;20128;45.582;5.298;2022-07-23T14:25:37;8.75;;;6.20;;
33826;SDS011;20128;45.582;5.298;2022-07-23T14:28:02;9.43;;;6.05;;
33826;SDS011;20128;45.582;5.298;2022-07-23T14:30:28;7.07;;;6.22;;
33826;SDS011;20128;45.582;5.298;2022-07-23T14:32:54;8.77;;;6.22;;
33826;SDS011;20128;45.582;5.298;2022-07-23T14:35:20;9.00;;;6.22;;
33826;SDS011;20128;45.582;5.298;2022-07-23T14:37:45;11.00;;;5.75;;
33826;SDS011;20128;45.582;5.298;2022-07-23T14:40:11;9.32;;;5.88;;
33826;SDS011;20128;45.582;5.298;2022-07-23T14:42:38;8.82;;;6.25;;
33826;SDS011;20128;45.582;5.298;2022-07-23T14:45:04;6.65;;;5.88;;
33826;SDS011;20128;45.582;5.298;2022-07-23T14:47:31;8.55;;;5.95;;
33826;SDS011;20128;45.582;5.298;2022-07-23T14:49:57;8.45;;;5.90;;
33826;SDS011;20128;45.582;5.298;2022-07-23T14:52:22;7.75;;;6.07;;
33826;SDS011;20128;45.582;5.298;2022-07-23T14:54:48;9.27;;;5.88;;
33826;SDS011;20128;45.582;5.298;2022-07-23T14:57:14;11.68;;;6.93;;
33826;SDS011;20128;45.582;5.298;2022-07-23T14:59:39;11.23;;;6.18;;
33826;SDS011;20128;45.582;5.298;2022-07-23T15:02:07;15.95;;;6.60;;
33826;SDS011;20128;45.582;5.298;2022-07-23T15:04:32;8.55;;;5.80;;
33826;SDS011;20128;45.582;5.298;2022-07-23T15:06:58;12.57;;;6.03;;
33826;SDS011;20128;45.582;5.298;2022-07-23T15:09:24;13.23;;;5.80;;
33826;SDS011;20128;45.582;5.298;2022-07-23T15:11:49;9.18;;;6.25;;
33826;SDS011;20128;45.582;5.298;2022-07-23T15:14:15;6.60;;;5.10;;
33826;SDS011;20128;45.582;5.298;2022-07-23T15:16:41;9.32;;;5.35;;
33826;SDS011;20128;45.582;5.298;2022-07-23T15:19:07;6.40;;;5.47;;